createdAt,value
2023-04-20T00:01:31.869Z,4.30
2023-04-20T00:04:00.244Z,3.90
2023-04-20T00:06:31.139Z,3.70
2023-04-20T00:08:59.178Z,3.33
2023-04-20T00:11:27.951Z,5.93
2023-04-20T00:13:57.440Z,2.70
2023-04-20T00:16:25.737Z,3.20
2023-04-20T00:18:53.618Z,3.97
2023-04-20T00:21:24.074Z,2.83
2023-04-20T00:23:52.405Z,3.60
2023-04-20T00:26:21.131Z,6.43
2023-04-20T00:28:52.358Z,4.70
2023-04-20T00:31:22.171Z,4.57
2023-04-20T00:33:50.362Z,3.33
2023-04-20T00:36:18.572Z,4.33
2023-04-20T00:38:46.613Z,3.97
2023-04-20T00:41:14.749Z,4.17
2023-04-20T00:43:52.021Z,3.93
2023-04-20T00:46:21.661Z,3.50
2023-04-20T00:48:51.805Z,3.80
2023-04-20T00:51:22.167Z,3.53
2023-04-20T00:53:50.537Z,3.50
2023-04-20T00:56:19.364Z,3.50
2023-04-20T00:58:48.276Z,3.83
2023-04-20T01:01:17.536Z,3.13
2023-04-20T01:03:49.185Z,3.13
2023-04-20T01:06:17.978Z,3.53
2023-04-20T01:08:50.858Z,5.27
2023-04-20T01:11:19.157Z,3.77
2023-04-20T01:13:47.059Z,3.77
2023-04-20T01:16:15.372Z,2.87
2023-04-20T01:18:47.332Z,3.23
2023-04-20T01:21:18.432Z,5.90
2023-04-20T01:23:47.800Z,4.43
2023-04-20T01:26:17.932Z,2.90
2023-04-20T01:28:46.670Z,4.00
2023-04-20T01:31:17.257Z,5.70
2023-04-20T01:33:45.273Z,3.70
2023-04-20T01:36:13.604Z,4.77
2023-04-20T01:38:41.806Z,3.27
2023-04-20T01:41:11.984Z,3.70
2023-04-20T01:43:40.778Z,4.63
2023-04-20T01:46:09.290Z,3.70
2023-04-20T01:48:37.283Z,5.57
2023-04-20T01:51:05.624Z,4.27
2023-04-20T01:53:34.147Z,5.83
2023-04-20T01:56:02.271Z,5.53
2023-04-20T01:58:31.584Z,5.43
2023-04-20T02:00:59.585Z,8.17
2023-04-20T02:03:28.152Z,5.93
2023-04-20T02:05:56.522Z,5.90
2023-04-20T02:08:28.395Z,6.57
2023-04-20T02:10:56.506Z,5.17
2023-04-20T02:13:24.412Z,5.70
2023-04-20T02:15:54.343Z,6.00
2023-04-20T02:18:24.542Z,4.73
2023-04-20T02:20:52.516Z,6.07
2023-04-20T02:23:20.653Z,5.20
2023-04-20T02:25:48.757Z,5.23
2023-04-20T02:28:16.726Z,4.90
2023-04-20T02:30:44.922Z,8.50
2023-04-20T02:33:14.311Z,5.30
2023-04-20T02:35:42.388Z,5.33
2023-04-20T02:38:12.108Z,6.13
2023-04-20T02:40:40.395Z,4.73
2023-04-20T02:43:08.920Z,4.50
2023-04-20T02:45:37.571Z,4.43
2023-04-20T02:48:06.703Z,5.00
2023-04-20T02:50:38.032Z,5.83
2023-04-20T02:53:19.068Z,4.90
2023-04-20T02:55:53.700Z,3.70
2023-04-20T02:58:30.715Z,5.17
2023-04-20T03:01:11.390Z,4.03
2023-04-20T03:03:40.230Z,5.23
2023-04-20T03:06:13.430Z,4.33
2023-04-20T03:08:45.291Z,4.77
2023-04-20T03:11:40.404Z,3.93
2023-04-20T03:14:09.084Z,4.07
2023-04-20T03:16:37.163Z,4.47
2023-04-20T03:19:06.007Z,4.63
2023-04-20T03:21:35.382Z,5.37
2023-04-20T03:24:03.646Z,5.40
2023-04-20T03:26:31.762Z,6.27
2023-04-20T03:29:12.431Z,6.17
2023-04-20T03:31:40.837Z,4.50
2023-04-20T03:34:10.052Z,4.77
2023-04-20T03:36:40.063Z,6.90
2023-04-20T03:39:08.385Z,4.60
2023-04-20T03:41:36.328Z,5.17
2023-04-20T03:44:04.632Z,5.57
2023-04-20T03:46:32.582Z,5.20
2023-04-20T03:49:00.542Z,4.43
2023-04-20T03:51:28.711Z,4.33
2023-04-20T03:53:57.956Z,5.00
2023-04-20T03:56:26.812Z,4.60
2023-04-20T03:58:55.862Z,5.43
2023-04-20T04:01:26.925Z,7.03
2023-04-20T04:03:55.212Z,4.83
2023-04-20T04:06:23.275Z,6.87
2023-04-20T04:08:52.575Z,4.23
2023-04-20T04:11:22.145Z,5.13
2023-04-20T04:13:50.696Z,5.27
2023-04-20T04:16:19.684Z,5.17
2023-04-20T04:18:50.001Z,5.57
2023-04-20T04:21:17.906Z,5.77
2023-04-20T04:23:53.652Z,5.40
2023-04-20T04:26:37.944Z,5.00
2023-04-20T04:29:06.770Z,4.43
2023-04-20T04:31:35.193Z,4.97
2023-04-20T04:34:09.586Z,5.43
2023-04-20T04:36:44.014Z,4.00
2023-04-20T04:39:15.232Z,3.90
2023-04-20T04:41:52.080Z,4.50
2023-04-20T04:44:28.891Z,6.43
2023-04-20T04:46:57.511Z,4.00
2023-04-20T04:49:27.400Z,4.77
2023-04-20T04:51:55.325Z,4.80
2023-04-20T04:54:23.235Z,4.63
2023-04-20T04:56:52.674Z,4.80
2023-04-20T04:59:20.863Z,4.23
2023-04-20T05:01:49.018Z,4.30
2023-04-20T05:04:17.153Z,6.17
2023-04-20T05:06:45.110Z,5.10
2023-04-20T05:09:12.968Z,4.10
2023-04-20T05:11:41.151Z,3.97
2023-04-20T05:14:10.597Z,5.40
2023-04-20T05:16:39.032Z,4.87
2023-04-20T05:19:09.568Z,5.33
2023-04-20T05:21:38.172Z,3.93
2023-04-20T05:24:06.680Z,4.47
2023-04-20T05:26:34.832Z,4.07
2023-04-20T05:29:02.707Z,4.43
2023-04-20T05:31:33.325Z,5.80
2023-04-20T05:34:03.402Z,5.03
2023-04-20T05:36:34.248Z,3.77
2023-04-20T05:39:06.151Z,4.10
2023-04-20T05:41:35.593Z,5.00
2023-04-20T05:44:03.512Z,4.30
2023-04-20T05:46:32.853Z,4.73
2023-04-20T05:49:00.758Z,5.80
2023-04-20T05:51:33.598Z,4.73
2023-04-20T05:54:01.640Z,4.63
2023-04-20T05:56:29.897Z,6.33
2023-04-20T05:58:58.401Z,4.63
2023-04-20T06:01:26.642Z,4.63
2023-04-20T06:03:56.282Z,5.10
2023-04-20T06:06:24.361Z,4.77
2023-04-20T06:08:53.101Z,5.67
2023-04-20T06:11:21.533Z,6.20
2023-04-20T06:13:49.479Z,4.37
2023-04-20T06:16:17.498Z,5.07
2023-04-20T06:18:45.701Z,5.13
2023-04-20T06:21:16.155Z,5.37
2023-04-20T06:23:44.550Z,5.13
2023-04-20T06:26:15.160Z,5.67
2023-04-20T06:28:43.041Z,4.03
2023-04-20T06:31:11.924Z,4.93
2023-04-20T06:33:40.723Z,5.23
2023-04-20T06:36:08.967Z,4.60
2023-04-20T06:38:38.453Z,5.57
2023-04-20T06:41:06.764Z,4.67
2023-04-20T06:43:34.677Z,5.07
2023-04-20T06:46:02.611Z,4.80
2023-04-20T06:48:32.717Z,7.13
2023-04-20T06:51:02.158Z,4.47
2023-04-20T06:53:30.198Z,6.33
2023-04-20T06:55:59.763Z,4.30
2023-04-20T06:58:27.735Z,4.32
2023-04-20T07:00:55.992Z,6.57
2023-04-20T07:03:24.246Z,6.23
2023-04-20T07:05:52.486Z,5.23
2023-04-20T07:08:21.019Z,4.33
2023-04-20T07:10:49.093Z,5.63
2023-04-20T07:13:18.443Z,4.20
2023-04-20T07:15:46.828Z,4.03
2023-04-20T07:18:14.738Z,5.70
2023-04-20T07:20:42.774Z,3.40
2023-04-20T07:23:11.408Z,4.10
2023-04-20T07:25:39.470Z,3.30
2023-04-20T07:28:07.491Z,3.00
2023-04-20T07:30:36.837Z,3.80
2023-04-20T07:33:05.091Z,4.13
2023-04-20T07:35:33.175Z,2.83
2023-04-20T07:38:01.620Z,3.37
2023-04-20T07:40:29.615Z,2.73
2023-04-20T07:42:57.757Z,2.10
2023-04-20T07:45:26.087Z,2.33
2023-04-20T07:47:57.385Z,2.37
2023-04-20T07:50:25.732Z,1.73
2023-04-20T07:52:53.826Z,2.90
2023-04-20T07:55:21.999Z,2.47
2023-04-20T07:57:50.458Z,3.10
2023-04-20T08:00:19.668Z,2.33
2023-04-20T08:02:47.846Z,1.43
2023-04-20T08:05:17.868Z,1.00
2023-04-20T08:07:45.999Z,1.90
2023-04-20T08:10:14.022Z,1.40
2023-04-20T08:12:42.309Z,1.40
2023-04-20T08:15:11.552Z,1.10
2023-04-20T08:17:39.965Z,0.57
2023-04-20T08:20:10.593Z,0.90
2023-04-20T08:22:40.830Z,1.40
2023-04-20T08:25:09.404Z,0.60
2023-04-20T08:27:37.536Z,1.63
2023-04-20T08:30:06.913Z,1.27
2023-04-20T08:32:34.823Z,1.73
2023-04-20T08:35:04.425Z,1.43
2023-04-20T08:37:33.142Z,0.90
2023-04-20T08:40:02.584Z,1.27
2023-04-20T08:42:30.466Z,1.37
2023-04-20T08:44:59.244Z,0.63
2023-04-20T08:47:29.204Z,2.27
2023-04-20T08:49:59.800Z,1.00
2023-04-20T08:52:27.725Z,1.10
2023-04-20T08:54:57.362Z,1.17
2023-04-20T08:57:27.679Z,1.00
2023-04-20T08:59:56.657Z,0.77
2023-04-20T09:02:24.971Z,0.90
2023-04-20T09:05:02.616Z,0.73
2023-04-20T09:07:30.856Z,1.17
2023-04-20T09:10:00.816Z,0.60
2023-04-20T09:12:30.278Z,0.70
2023-04-20T09:14:58.109Z,1.53
2023-04-20T09:17:34.625Z,0.80
2023-04-20T09:20:04.111Z,0.57
2023-04-20T09:22:33.309Z,1.03
2023-04-20T09:25:01.770Z,0.90
2023-04-20T09:27:31.229Z,1.03
2023-04-20T09:30:00.230Z,2.53
2023-04-20T09:32:29.599Z,1.30
2023-04-20T09:34:57.869Z,0.90
2023-04-20T09:37:26.166Z,1.87
2023-04-20T09:40:00.562Z,2.13
2023-04-20T09:42:31.192Z,0.93
2023-04-20T09:44:59.687Z,0.70
2023-04-20T09:47:29.750Z,1.57
2023-04-20T09:50:04.417Z,1.13
2023-04-20T09:52:40.003Z,1.20
2023-04-20T09:55:11.513Z,1.47
2023-04-20T09:57:41.811Z,0.83
2023-04-20T10:00:10.840Z,0.70
2023-04-20T10:02:39.671Z,1.10
2023-04-20T10:05:08.634Z,1.03
2023-04-20T10:07:37.040Z,1.30
2023-04-20T10:10:07.529Z,1.40
2023-04-20T10:12:36.876Z,1.50
2023-04-20T10:15:06.939Z,2.27
2023-04-20T10:17:35.161Z,1.77
2023-04-20T10:20:04.752Z,1.80
2023-04-20T10:22:33.957Z,2.77
2023-04-20T10:25:02.935Z,2.47
2023-04-20T10:27:32.581Z,2.07
2023-04-20T10:30:11.850Z,2.63
2023-04-20T10:32:40.060Z,2.53
2023-04-20T10:35:11.556Z,2.43
2023-04-20T10:37:49.084Z,3.37
2023-04-20T10:40:17.193Z,2.80
2023-04-20T10:42:45.688Z,4.17
2023-04-20T10:45:14.938Z,3.17
2023-04-20T10:47:44.385Z,3.30
2023-04-20T10:50:15.341Z,5.03
2023-04-20T10:52:44.971Z,3.47
2023-04-20T10:55:21.134Z,3.27
2023-04-20T10:57:49.564Z,3.30
2023-04-20T11:00:21.811Z,2.50
2023-04-20T11:02:50.970Z,2.40
2023-04-20T11:05:20.331Z,2.70
2023-04-20T11:07:53.487Z,3.33
2023-04-20T11:10:22.233Z,2.67
2023-04-20T11:12:51.041Z,6.07
2023-04-20T11:15:20.568Z,3.53
2023-04-20T11:17:48.527Z,2.83
2023-04-20T11:20:18.679Z,4.57
2023-04-20T11:22:57.219Z,3.93
2023-04-20T11:25:25.794Z,2.97
2023-04-20T11:27:53.648Z,3.93
2023-04-20T11:30:22.974Z,4.33
2023-04-20T11:32:55.901Z,4.17
2023-04-20T11:35:24.145Z,4.50
2023-04-20T11:37:53.683Z,3.60
2023-04-20T11:40:22.081Z,3.77
2023-04-20T11:42:50.659Z,5.07
2023-04-20T11:45:18.863Z,4.43
2023-04-20T11:47:49.298Z,3.03
2023-04-20T11:50:17.485Z,4.00
2023-04-20T11:52:45.606Z,3.67
2023-04-20T11:55:14.143Z,3.33
2023-04-20T11:57:42.526Z,4.30
2023-04-20T12:00:13.231Z,3.97
2023-04-20T12:02:44.114Z,5.00
2023-04-20T12:05:13.994Z,3.97
2023-04-20T12:07:43.422Z,4.13
2023-04-20T12:10:11.763Z,3.67
2023-04-20T12:12:41.978Z,4.17
2023-04-20T12:15:10.797Z,3.07
2023-04-20T12:17:38.817Z,3.40
2023-04-20T12:20:11.428Z,4.00
2023-04-20T12:22:41.060Z,2.77
2023-04-20T12:25:09.733Z,4.53
2023-04-20T12:27:38.159Z,5.03
2023-04-20T12:30:09.133Z,4.17
2023-04-20T12:32:37.338Z,3.60
2023-04-20T12:35:05.648Z,4.30
2023-04-20T12:37:33.858Z,3.47
2023-04-20T12:40:04.964Z,4.03
2023-04-20T12:42:32.846Z,3.57
2023-04-20T12:45:01.400Z,3.80
2023-04-20T12:47:29.615Z,3.73
2023-04-20T12:49:57.838Z,4.87
2023-04-20T12:52:25.829Z,3.53
2023-04-20T12:54:53.932Z,3.67
2023-04-20T12:57:23.194Z,3.70
2023-04-20T12:59:51.365Z,4.13
2023-04-20T13:02:19.858Z,4.33
2023-04-20T13:04:48.057Z,3.87
2023-04-20T13:07:16.073Z,3.77
2023-04-20T13:09:44.307Z,3.80
2023-04-20T13:12:12.389Z,4.27
2023-04-20T13:14:41.716Z,4.13
2023-04-20T13:17:09.736Z,4.00
2023-04-20T13:19:37.739Z,3.80
2023-04-20T13:22:06.033Z,4.70
2023-04-20T13:24:34.148Z,4.23
2023-04-20T13:27:02.205Z,4.27
2023-04-20T13:29:30.254Z,3.40
2023-04-20T13:31:59.922Z,3.53
2023-04-20T13:34:27.924Z,4.20
2023-04-20T13:36:55.853Z,4.13
2023-04-20T13:39:23.869Z,5.30
2023-04-20T13:41:51.708Z,7.90
2023-04-20T13:44:20.361Z,7.20
2023-04-20T13:46:49.331Z,7.03
2023-04-20T13:49:18.536Z,5.43
2023-04-20T13:51:46.580Z,6.20
2023-04-20T13:54:14.526Z,6.00
2023-04-20T13:56:42.529Z,5.50
2023-04-20T13:59:10.567Z,4.33
2023-04-20T14:01:38.848Z,7.43
2023-04-20T14:04:06.889Z,4.00
2023-04-20T14:06:36.353Z,5.20
2023-04-20T14:09:04.337Z,5.07
2023-04-20T14:11:33.089Z,6.37
2023-04-20T14:14:01.310Z,4.20
2023-04-20T14:16:29.304Z,4.10
2023-04-20T14:18:57.547Z,4.60
2023-04-20T14:21:25.374Z,4.53
2023-04-20T14:23:56.021Z,4.33
2023-04-20T14:26:24.134Z,3.83
2023-04-20T14:28:53.145Z,5.23
2023-04-20T14:31:21.131Z,5.27
2023-04-20T14:33:49.109Z,4.57
2023-04-20T14:36:17.158Z,5.47
2023-04-20T14:38:45.062Z,3.87
2023-04-20T14:41:16.613Z,4.63
2023-04-20T14:43:44.639Z,3.60
2023-04-20T14:46:12.890Z,4.00
2023-04-20T14:48:40.930Z,4.10
2023-04-20T14:51:09.046Z,3.63
2023-04-20T14:53:36.885Z,3.93
2023-04-20T14:56:05.468Z,3.73
2023-04-20T14:58:36.024Z,3.53
2023-04-20T15:01:04.267Z,4.47
2023-04-20T15:03:32.551Z,5.63
2023-04-20T15:06:02.233Z,4.33
2023-04-20T15:08:30.438Z,4.00
2023-04-20T15:10:58.452Z,3.70
2023-04-20T15:13:27.021Z,3.70
2023-04-20T15:15:56.486Z,4.57
2023-04-20T15:18:24.499Z,4.73
2023-04-20T15:20:53.188Z,3.97
2023-04-20T15:23:21.300Z,4.40
2023-04-20T15:25:49.610Z,3.53
2023-04-20T15:28:17.863Z,2.93
2023-04-20T15:30:45.907Z,3.20
2023-04-20T15:33:15.601Z,4.47
2023-04-20T15:35:43.589Z,4.73
2023-04-20T15:38:11.629Z,4.07
2023-04-20T15:40:39.848Z,2.90
2023-04-20T15:43:07.746Z,3.47
2023-04-20T15:45:35.964Z,4.97
2023-04-20T15:48:04.063Z,3.87
2023-04-20T15:50:33.577Z,3.80
2023-04-20T15:53:01.522Z,3.40
2023-04-20T15:55:34.243Z,4.40
2023-04-20T15:58:02.448Z,4.07
2023-04-20T16:00:31.322Z,3.40
2023-04-20T16:03:01.337Z,4.80
2023-04-20T16:05:30.197Z,3.67
2023-04-20T16:07:59.526Z,3.37
2023-04-20T16:10:28.272Z,4.03
2023-04-20T16:12:56.921Z,3.67
2023-04-20T16:15:24.859Z,4.33
2023-04-20T16:17:54.556Z,4.20
2023-04-20T16:20:22.718Z,3.67
2023-04-20T16:22:50.697Z,4.60
2023-04-20T16:25:23.226Z,4.30
2023-04-20T16:27:51.632Z,7.27
2023-04-20T16:30:19.893Z,4.73
2023-04-20T16:32:48.152Z,5.20
2023-04-20T16:35:16.131Z,3.97
2023-04-20T16:37:44.162Z,3.50
2023-04-20T16:40:12.573Z,3.67
2023-04-20T16:42:41.837Z,3.43
2023-04-20T16:45:10.135Z,4.43
2023-04-20T16:47:38.338Z,3.63
2023-04-20T16:50:07.729Z,3.73
2023-04-20T16:52:36.271Z,4.37
2023-04-20T16:55:04.394Z,5.07
2023-04-20T16:57:32.606Z,5.00
2023-04-20T17:00:02.093Z,4.40
2023-04-20T17:02:33.025Z,4.43
2023-04-20T17:05:01.904Z,3.97
2023-04-20T17:07:29.836Z,4.50
2023-04-20T17:09:57.940Z,4.67
2023-04-20T17:12:26.311Z,8.20
2023-04-20T17:14:55.712Z,4.17
2023-04-20T17:17:26.217Z,4.10
2023-04-20T17:19:54.276Z,4.60
2023-04-20T17:22:22.327Z,4.07
2023-04-20T17:24:50.355Z,4.37
2023-04-20T17:27:18.458Z,4.63
2023-04-20T17:29:47.644Z,5.30
2023-04-20T17:32:15.553Z,4.30
2023-04-20T17:34:48.404Z,4.93
2023-04-20T17:37:16.555Z,4.33
2023-04-20T17:39:45.129Z,5.20
2023-04-20T17:42:13.127Z,4.23
2023-04-20T17:44:41.323Z,4.00
2023-04-20T17:47:10.017Z,5.63
2023-04-20T17:49:39.527Z,6.17
2023-04-20T17:52:09.262Z,5.00
2023-04-20T17:54:37.238Z,5.20
2023-04-20T17:57:06.465Z,4.60
2023-04-20T17:59:34.396Z,5.53
2023-04-20T18:02:02.908Z,5.27
2023-04-20T18:04:31.286Z,5.17
2023-04-20T18:06:59.410Z,5.43
2023-04-20T18:09:28.685Z,5.70
2023-04-20T18:11:56.540Z,5.87
2023-04-20T18:14:24.530Z,5.87
2023-04-20T18:16:54.877Z,5.47
2023-04-20T18:19:22.791Z,4.97
2023-04-20T18:21:51.394Z,4.93
2023-04-20T18:24:19.663Z,5.63
2023-04-20T18:26:49.221Z,5.27
2023-04-20T18:29:17.084Z,4.83
2023-04-20T18:31:46.498Z,5.23
2023-04-20T18:34:16.534Z,5.27
2023-04-20T18:36:44.817Z,5.73
2023-04-20T18:39:12.736Z,5.83
2023-04-20T18:41:40.780Z,6.17
2023-04-20T18:44:10.044Z,5.10
2023-04-20T18:46:39.261Z,7.77
2023-04-20T18:49:07.251Z,5.20
2023-04-20T18:51:35.233Z,5.50
2023-04-20T18:54:03.361Z,6.33
2023-04-20T18:56:31.234Z,5.27
2023-04-20T18:59:00.422Z,5.87
2023-04-20T19:01:29.958Z,7.23
2023-04-20T19:03:58.238Z,6.47
2023-04-20T19:06:26.274Z,5.40
2023-04-20T19:08:55.443Z,6.50
2023-04-20T19:11:23.722Z,7.27
2023-04-20T19:13:51.982Z,6.13
2023-04-20T19:16:20.651Z,5.97
2023-04-20T19:18:50.583Z,5.30
2023-04-20T19:21:20.933Z,5.83
2023-04-20T19:23:50.246Z,5.97
2023-04-20T19:26:18.574Z,6.83
2023-04-20T19:28:46.861Z,6.00
2023-04-20T19:31:16.104Z,6.47
2023-04-20T19:33:44.399Z,5.60
2023-04-20T19:36:13.849Z,6.90
2023-04-20T19:38:41.893Z,6.27
2023-04-20T19:41:10.163Z,6.23
2023-04-20T19:43:38.037Z,7.23
2023-04-20T19:46:09.498Z,6.37
2023-04-20T19:48:38.064Z,6.50
2023-04-20T19:51:06.622Z,5.73
2023-04-20T19:53:36.523Z,6.87
2023-04-20T19:56:06.571Z,7.30
2023-04-20T19:58:35.084Z,6.53
2023-04-20T20:01:03.532Z,7.00
2023-04-20T20:03:31.672Z,6.53
2023-04-20T20:06:00.611Z,5.73
2023-04-20T20:08:28.963Z,6.20
2023-04-20T20:10:58.284Z,6.90
2023-04-20T20:13:27.042Z,6.40
2023-04-20T20:15:55.183Z,6.53
2023-04-20T20:18:23.360Z,6.17
2023-04-20T20:20:51.450Z,7.20
2023-04-20T20:23:19.545Z,7.37
2023-04-20T20:25:47.593Z,7.20
2023-04-20T20:28:16.822Z,7.93
2023-04-20T20:30:45.383Z,7.90
2023-04-20T20:33:14.239Z,7.60
2023-04-20T20:35:42.421Z,9.93
2023-04-20T20:38:10.893Z,6.73
2023-04-20T20:40:40.029Z,8.00
2023-04-20T20:43:08.684Z,8.43
2023-04-20T20:45:38.105Z,5.70
2023-04-20T20:48:06.256Z,7.73
2023-04-20T20:50:34.431Z,6.77
2023-04-20T20:53:02.330Z,6.77
2023-04-20T20:55:30.503Z,7.50
2023-04-20T20:57:58.506Z,7.77
2023-04-20T21:00:27.098Z,7.03
2023-04-20T21:02:57.066Z,8.20
2023-04-20T21:05:25.387Z,7.97
2023-04-20T21:07:53.524Z,7.90
2023-04-20T21:10:21.490Z,10.10
2023-04-20T21:12:49.698Z,7.93
2023-04-20T21:15:17.714Z,8.00
2023-04-20T21:17:45.808Z,7.47
2023-04-20T21:20:15.572Z,7.80
2023-04-20T21:22:43.404Z,8.03
2023-04-20T21:25:11.559Z,8.83
2023-04-20T21:27:39.564Z,7.97
2023-04-20T21:30:08.622Z,8.17
2023-04-20T21:32:36.767Z,7.73
2023-04-20T21:35:05.304Z,8.57
2023-04-20T21:37:34.512Z,9.10
2023-04-20T21:40:03.575Z,8.40
2023-04-20T21:42:31.736Z,9.63
2023-04-20T21:44:59.745Z,8.87
2023-04-20T21:47:27.657Z,9.27
2023-04-20T21:49:56.026Z,10.90
2023-04-20T21:52:24.788Z,9.30
2023-04-20T21:54:54.200Z,7.93
2023-04-20T21:57:22.360Z,9.87
2023-04-20T21:59:50.459Z,8.87
2023-04-20T22:02:18.343Z,9.40
2023-04-20T22:04:46.909Z,8.07
2023-04-20T22:07:17.641Z,8.40
2023-04-20T22:09:45.615Z,6.53
2023-04-20T22:12:14.934Z,8.17
2023-04-20T22:14:42.841Z,8.07
2023-04-20T22:17:11.967Z,8.87
2023-04-20T22:19:39.872Z,9.50
2023-04-20T22:22:07.864Z,9.70
2023-04-20T22:24:35.877Z,8.07
2023-04-20T22:27:03.740Z,9.03
2023-04-20T22:29:33.112Z,8.97
2023-04-20T22:32:01.140Z,8.43
2023-04-20T22:34:29.055Z,7.67
2023-04-20T22:36:56.971Z,9.00
2023-04-20T22:39:25.096Z,9.03
2023-04-20T22:41:53.055Z,9.23
2023-04-20T22:44:20.900Z,9.17
2023-04-20T22:46:51.122Z,8.37
2023-04-20T22:49:19.472Z,8.50
2023-04-20T22:51:47.551Z,9.77
2023-04-20T22:54:16.094Z,9.10
2023-04-20T22:56:44.128Z,8.83
2023-04-20T22:59:12.170Z,9.10
2023-04-20T23:01:40.343Z,8.77
2023-04-20T23:04:09.828Z,9.93
2023-04-20T23:06:37.941Z,9.40
2023-04-20T23:09:07.765Z,9.80
2023-04-20T23:11:38.936Z,10.00
2023-04-20T23:14:07.291Z,10.23
2023-04-20T23:16:35.495Z,9.33
2023-04-20T23:19:03.827Z,9.87
2023-04-20T23:21:33.108Z,10.73
2023-04-20T23:24:01.396Z,9.97
2023-04-20T23:26:29.239Z,10.03
2023-04-20T23:28:57.548Z,10.37
2023-04-20T23:31:25.765Z,9.47
2023-04-20T23:33:53.701Z,9.60
2023-04-20T23:36:21.651Z,9.77
2023-04-20T23:38:51.104Z,10.50
2023-04-20T23:41:19.148Z,9.27
2023-04-20T23:43:47.459Z,9.73
2023-04-20T23:46:15.427Z,10.57
2023-04-20T23:48:43.555Z,10.47
2023-04-20T23:51:12.204Z,10.73
2023-04-20T23:53:40.137Z,10.13
2023-04-20T23:56:09.545Z,10.93
2023-04-20T23:58:38.032Z,11.63
